Terminal Aerodrome Forecast
Issued by NWS Topeka, KS

Home | Current Version | Previous Version | Graphics & Text | Print | Product List | Glossary Off
Versions: 1 2 3 4 5 6 7 8 9 10 11 12 13

000
FTUS43 KTOP 191123
TAFTOP
TAF
KTOP 191123Z 1912/2012 VRB03KT 2SM BR SKC
     FM191300 17003KT P6SM SKC
     FM191800 17007KT P6SM SKC
     FM200500 16005KT P6SM FEW250 WS010/20035KT=

USA.gov is the U.S. government's official web portal to all federal, state and local government web resources and services.